createdAt,value
2016-12-04T00:00:30.067Z,0
2016-12-04T00:01:30.701Z,0
2016-12-04T00:02:31.312Z,0
2016-12-04T00:03:31.928Z,0
2016-12-04T00:04:32.547Z,0
2016-12-04T00:05:33.164Z,0
2016-12-04T00:06:33.788Z,0
2016-12-04T00:07:34.400Z,0
2016-12-04T00:08:35.021Z,0
2016-12-04T00:09:35.627Z,0
2016-12-04T00:10:36.246Z,0
2016-12-04T00:11:36.877Z,0
2016-12-04T00:12:37.498Z,0
2016-12-04T00:13:38.114Z,0
2016-12-04T00:14:38.739Z,0
2016-12-04T00:15:39.371Z,0
2016-12-04T00:16:39.995Z,0
2016-12-04T00:17:40.611Z,0
2016-12-04T00:18:41.237Z,0
2016-12-04T00:19:41.861Z,0
2016-12-04T00:20:42.485Z,0
2016-12-04T00:21:43.112Z,0
2016-12-04T00:22:43.719Z,0
2016-12-04T00:23:44.327Z,0
2016-12-04T00:24:44.935Z,0
2016-12-04T00:25:45.574Z,0
2016-12-04T00:26:46.196Z,0
2016-12-04T00:27:46.825Z,0
2016-12-04T00:28:47.436Z,0
2016-12-04T00:29:48.075Z,0
2016-12-04T00:30:48.689Z,0
2016-12-04T00:31:49.311Z,0
2016-12-04T00:32:49.947Z,0
2016-12-04T00:33:50.565Z,0
2016-12-04T00:34:51.244Z,0
2016-12-04T00:35:51.866Z,0
2016-12-04T00:36:52.496Z,0
2016-12-04T00:37:53.101Z,0
2016-12-04T00:38:53.705Z,0
2016-12-04T00:39:54.356Z,0
2016-12-04T00:40:54.977Z,0
2016-12-04T00:41:55.585Z,0
2016-12-04T00:42:56.189Z,0
2016-12-04T00:43:56.802Z,0
2016-12-04T00:44:57.409Z,0
2016-12-04T00:45:58.041Z,0
2016-12-04T00:46:58.655Z,0
2016-12-04T00:47:59.277Z,0
2016-12-04T00:48:59.961Z,0
2016-12-04T00:50:00.538Z,0
2016-12-04T00:51:01.162Z,0
2016-12-04T00:52:01.777Z,0
2016-12-04T00:53:02.434Z,0
2016-12-04T00:54:03.032Z,0
2016-12-04T00:55:03.646Z,0
2016-12-04T00:56:04.278Z,0
2016-12-04T00:57:04.882Z,0
2016-12-04T00:58:05.507Z,0
2016-12-04T00:59:06.119Z,0
2016-12-04T01:00:06.760Z,0
2016-12-04T01:01:07.381Z,0
2016-12-04T01:02:07.995Z,0
2016-12-04T01:03:08.630Z,0
2016-12-04T01:04:09.252Z,0
2016-12-04T01:05:09.866Z,0
2016-12-04T01:06:10.480Z,0
2016-12-04T01:07:11.115Z,0
2016-12-04T01:08:11.744Z,0
2016-12-04T01:09:12.382Z,0
2016-12-04T01:10:12.997Z,0
2016-12-04T01:11:13.612Z,0
2016-12-04T01:12:14.251Z,0
2016-12-04T01:13:14.859Z,0
2016-12-04T01:14:15.479Z,0
2016-12-04T01:15:16.080Z,0
2016-12-04T01:16:16.711Z,0
2016-12-04T01:17:17.321Z,0
2016-12-04T01:18:17.934Z,0
2016-12-04T01:19:18.555Z,0
2016-12-04T01:20:19.173Z,0
2016-12-04T01:21:19.785Z,0
2016-12-04T01:22:20.390Z,0
2016-12-04T01:23:21.007Z,0
2016-12-04T01:24:21.615Z,0
2016-12-04T01:25:22.232Z,0
2016-12-04T01:26:22.841Z,0
2016-12-04T01:27:23.466Z,0
2016-12-04T01:28:24.089Z,0
2016-12-04T01:29:24.697Z,0
2016-12-04T01:30:25.311Z,0
2016-12-04T01:31:25.918Z,0
2016-12-04T01:32:26.526Z,0
2016-12-04T01:33:27.141Z,0
2016-12-04T01:34:27.778Z,0
2016-12-04T01:35:28.398Z,0
2016-12-04T01:36:29.034Z,0
2016-12-04T01:37:29.632Z,0
2016-12-04T01:38:30.254Z,0
2016-12-04T01:39:30.871Z,0
2016-12-04T01:40:31.523Z,0
2016-12-04T01:41:32.131Z,0
2016-12-04T01:42:32.749Z,0
2016-12-04T01:43:33.368Z,0
2016-12-04T01:44:33.983Z,0
2016-12-04T01:45:34.608Z,0
2016-12-04T01:46:35.234Z,0
2016-12-04T01:47:35.847Z,0
2016-12-04T01:48:36.475Z,0
2016-12-04T01:49:37.093Z,0
2016-12-04T01:50:37.702Z,0
2016-12-04T01:51:38.325Z,0
2016-12-04T01:52:38.936Z,0
2016-12-04T01:53:39.570Z,0
2016-12-04T01:54:40.194Z,0
2016-12-04T01:55:40.814Z,0
2016-12-04T01:56:41.434Z,0
2016-12-04T01:57:42.044Z,0
2016-12-04T01:58:42.667Z,0
2016-12-04T01:59:43.270Z,0
2016-12-04T02:00:43.883Z,0
2016-12-04T02:01:44.506Z,0
2016-12-04T02:02:45.111Z,0
2016-12-04T02:03:45.729Z,0
2016-12-04T02:04:46.352Z,0
2016-12-04T02:05:46.998Z,0
2016-12-04T02:06:47.605Z,0
2016-12-04T02:07:48.217Z,0
2016-12-04T02:08:48.844Z,0
2016-12-04T02:09:49.448Z,0
2016-12-04T02:10:50.088Z,0
2016-12-04T02:11:50.772Z,0
2016-12-04T02:12:51.404Z,0
2016-12-04T02:13:58.621Z,0
2016-12-04T02:14:59.253Z,0
2016-12-04T02:15:59.850Z,0
2016-12-04T02:17:00.457Z,0
2016-12-04T02:18:01.072Z,0
2016-12-04T02:19:01.687Z,0
2016-12-04T02:20:02.314Z,0
2016-12-04T02:21:02.953Z,0
2016-12-04T02:22:03.581Z,0
2016-12-04T02:23:04.181Z,0
2016-12-04T02:24:04.807Z,0
2016-12-04T02:25:05.426Z,0
2016-12-04T02:26:06.049Z,0
2016-12-04T02:27:06.665Z,0
2016-12-04T02:28:07.289Z,0
2016-12-04T02:29:07.929Z,0
2016-12-04T02:30:08.558Z,0
2016-12-04T02:31:09.173Z,0
2016-12-04T02:32:09.782Z,0
2016-12-04T02:33:10.394Z,0
2016-12-04T02:34:11.021Z,0
2016-12-04T02:35:11.635Z,0
2016-12-04T02:36:12.259Z,0
2016-12-04T02:37:12.883Z,0
2016-12-04T02:38:13.502Z,0
2016-12-04T02:39:14.125Z,0
2016-12-04T02:40:14.747Z,0
2016-12-04T02:41:15.368Z,0
2016-12-04T02:42:15.989Z,0
2016-12-04T02:43:16.610Z,0
2016-12-04T02:44:17.237Z,0
2016-12-04T02:45:17.842Z,0
2016-12-04T02:46:18.494Z,0
2016-12-04T02:47:19.107Z,0
2016-12-04T02:48:19.728Z,0
2016-12-04T02:49:20.348Z,0
2016-12-04T02:50:20.954Z,0
2016-12-04T02:51:21.579Z,0
2016-12-04T02:52:22.194Z,0
2016-12-04T02:53:22.828Z,0
2016-12-04T02:54:23.435Z,0
2016-12-04T02:55:24.067Z,0
2016-12-04T02:56:24.676Z,0
2016-12-04T02:57:25.304Z,0
2016-12-04T02:58:25.923Z,0
2016-12-04T02:59:26.540Z,0
2016-12-04T03:00:27.165Z,0
2016-12-04T03:01:27.807Z,0
2016-12-04T03:02:28.412Z,0
2016-12-04T03:03:29.021Z,0
2016-12-04T03:04:29.669Z,0
2016-12-04T03:05:30.277Z,0
2016-12-04T03:06:30.896Z,0
2016-12-04T03:07:31.511Z,0
2016-12-04T03:08:32.154Z,0
2016-12-04T03:09:32.775Z,0
2016-12-04T03:10:33.397Z,0
2016-12-04T03:11:34.008Z,0
2016-12-04T03:12:34.631Z,0
2016-12-04T03:13:35.245Z,0
2016-12-04T03:14:35.864Z,0
2016-12-04T03:15:36.484Z,0
2016-12-04T03:16:37.118Z,0
2016-12-04T03:17:37.747Z,0
2016-12-04T03:18:38.356Z,0
2016-12-04T03:19:38.975Z,0
2016-12-04T03:20:39.588Z,0
2016-12-04T03:21:40.198Z,0
2016-12-04T03:22:40.815Z,0
2016-12-04T03:23:41.452Z,0
2016-12-04T03:24:42.072Z,0
2016-12-04T03:25:42.684Z,0
2016-12-04T03:26:43.298Z,0
2016-12-04T03:27:43.924Z,0
2016-12-04T03:28:44.558Z,0
2016-12-04T03:29:45.179Z,0
2016-12-04T03:30:45.802Z,0
2016-12-04T03:31:46.455Z,0
2016-12-04T03:32:47.100Z,0
2016-12-04T03:33:47.710Z,0
2016-12-04T03:34:48.325Z,0
2016-12-04T03:35:48.997Z,0
2016-12-04T03:36:49.631Z,0
2016-12-04T03:37:50.265Z,0
2016-12-04T03:38:50.867Z,0
2016-12-04T03:39:51.497Z,0
2016-12-04T03:40:52.114Z,0
2016-12-04T03:41:52.731Z,0
2016-12-04T03:42:53.338Z,0
2016-12-04T03:43:53.962Z,0
2016-12-04T03:44:54.590Z,0
2016-12-04T03:45:55.222Z,0
2016-12-04T03:46:55.834Z,0
2016-12-04T03:47:56.452Z,0
2016-12-04T03:48:57.080Z,0
2016-12-04T03:49:57.712Z,0
2016-12-04T03:50:58.350Z,0
2016-12-04T03:51:58.960Z,0
2016-12-04T03:52:59.571Z,0
2016-12-04T03:54:00.256Z,0
2016-12-04T03:55:00.870Z,0
2016-12-04T03:56:01.485Z,0
2016-12-04T03:57:02.100Z,0
2016-12-04T03:58:02.722Z,0
2016-12-04T03:59:03.349Z,0
2016-12-04T04:00:03.975Z,0
2016-12-04T04:01:04.585Z,0
2016-12-04T04:02:05.210Z,0
2016-12-04T04:03:05.821Z,0
2016-12-04T04:04:06.439Z,0
2016-12-04T04:05:07.067Z,0
2016-12-04T04:06:07.681Z,0
2016-12-04T04:07:08.294Z,0
2016-12-04T04:08:08.914Z,0
2016-12-04T04:09:09.553Z,0
2016-12-04T04:10:10.167Z,0
2016-12-04T04:11:10.794Z,0
2016-12-04T04:12:11.414Z,0
2016-12-04T04:13:12.038Z,0
2016-12-04T04:14:12.658Z,0
2016-12-04T04:15:13.266Z,0
2016-12-04T04:16:13.875Z,0
2016-12-04T04:17:14.512Z,0
2016-12-04T04:18:15.125Z,0
2016-12-04T04:19:15.736Z,0
2016-12-04T04:20:16.361Z,0
2016-12-04T04:21:16.979Z,0
2016-12-04T04:22:17.643Z,0
2016-12-04T04:23:18.255Z,0
2016-12-04T04:24:18.883Z,0
2016-12-04T04:25:19.495Z,0
2016-12-04T04:26:20.117Z,0
2016-12-04T04:27:20.729Z,0
2016-12-04T04:28:21.359Z,0
2016-12-04T04:29:21.995Z,0
2016-12-04T04:30:22.598Z,0
2016-12-04T04:31:23.234Z,0
2016-12-04T04:32:23.857Z,0
2016-12-04T04:33:24.462Z,0
2016-12-04T04:34:25.080Z,0
2016-12-04T04:35:25.713Z,0
2016-12-04T04:36:26.336Z,0
2016-12-04T04:37:26.959Z,0
2016-12-04T04:38:27.571Z,0
2016-12-04T04:39:28.198Z,0
2016-12-04T04:40:28.820Z,0
2016-12-04T04:41:29.437Z,0
2016-12-04T04:42:30.040Z,0
2016-12-04T04:43:30.663Z,0
2016-12-04T04:44:31.303Z,0
2016-12-04T04:45:31.924Z,0
2016-12-04T04:46:32.565Z,0
2016-12-04T04:47:33.211Z,0
2016-12-04T04:48:33.853Z,0
2016-12-04T04:49:34.461Z,0
2016-12-04T04:50:35.083Z,0
2016-12-04T04:51:35.738Z,0
2016-12-04T04:52:36.343Z,0
2016-12-04T04:53:36.962Z,0
2016-12-04T04:54:37.582Z,0
2016-12-04T04:55:38.203Z,0
2016-12-04T04:56:38.860Z,0
2016-12-04T04:57:39.477Z,0
2016-12-04T04:58:40.116Z,0
2016-12-04T04:59:40.777Z,0
2016-12-04T05:00:41.395Z,0
2016-12-04T05:01:42.015Z,0
2016-12-04T05:02:42.637Z,0
2016-12-04T05:03:43.263Z,0
2016-12-04T05:04:43.879Z,0
2016-12-04T05:05:44.484Z,0
2016-12-04T05:06:45.138Z,0
2016-12-04T05:07:45.767Z,0
2016-12-04T05:08:46.381Z,0
2016-12-04T05:09:47.003Z,0
2016-12-04T05:10:47.612Z,0
2016-12-04T05:11:48.235Z,0
2016-12-04T05:12:48.837Z,0
2016-12-04T05:13:49.453Z,0
2016-12-04T05:14:50.146Z,0
2016-12-04T05:15:50.751Z,0
2016-12-04T05:16:51.380Z,0
2016-12-04T05:17:52.012Z,0
2016-12-04T05:18:52.626Z,0
2016-12-04T05:19:53.246Z,0
2016-12-04T05:20:53.905Z,0
2016-12-04T05:21:54.482Z,0
2016-12-04T05:22:55.109Z,0
2016-12-04T05:23:55.752Z,0
2016-12-04T05:24:56.371Z,0
2016-12-04T05:25:56.982Z,0
2016-12-04T05:26:57.602Z,0
2016-12-04T05:27:58.218Z,0
2016-12-04T05:28:58.830Z,0
2016-12-04T05:29:59.451Z,0
2016-12-04T05:31:00.077Z,0
2016-12-04T05:32:00.709Z,0
2016-12-04T05:33:01.326Z,0
2016-12-04T05:34:01.946Z,0
2016-12-04T05:35:02.562Z,0
2016-12-04T05:36:03.182Z,0
2016-12-04T05:37:03.812Z,0
2016-12-04T05:38:04.434Z,0
2016-12-04T05:39:05.051Z,0
2016-12-04T05:40:05.677Z,0
2016-12-04T05:41:06.314Z,0
2016-12-04T05:42:06.943Z,0
2016-12-04T05:43:07.552Z,0
2016-12-04T05:44:08.188Z,0
2016-12-04T05:45:08.809Z,0
2016-12-04T05:46:09.514Z,0
2016-12-04T05:47:10.091Z,0
2016-12-04T05:48:10.700Z,0
2016-12-04T05:49:11.333Z,0
2016-12-04T05:50:11.951Z,0
2016-12-04T05:51:12.571Z,0
2016-12-04T05:52:13.174Z,0
2016-12-04T05:53:13.807Z,0
2016-12-04T05:54:14.417Z,0
2016-12-04T05:55:15.010Z,0
2016-12-04T05:56:15.658Z,0
2016-12-04T05:57:16.277Z,0
2016-12-04T05:58:16.944Z,0
2016-12-04T05:59:17.532Z,0
2016-12-04T06:00:18.153Z,0
2016-12-04T06:01:18.757Z,0
2016-12-04T06:02:19.385Z,0
2016-12-04T06:03:19.999Z,0
2016-12-04T06:04:20.620Z,0
2016-12-04T06:05:21.245Z,0
2016-12-04T06:06:21.918Z,0
2016-12-04T06:07:22.546Z,0
2016-12-04T06:08:23.159Z,0
2016-12-04T06:09:23.778Z,0
2016-12-04T06:10:24.399Z,0
2016-12-04T06:11:25.039Z,0
2016-12-04T06:12:25.650Z,0
2016-12-04T06:13:26.263Z,0
2016-12-04T06:14:26.879Z,0
2016-12-04T06:15:27.501Z,0
2016-12-04T06:16:28.113Z,0
2016-12-04T06:17:28.716Z,0
2016-12-04T06:18:29.346Z,0
2016-12-04T06:19:29.960Z,0
2016-12-04T06:20:30.585Z,0
2016-12-04T06:21:31.199Z,0
2016-12-04T06:22:31.821Z,0
2016-12-04T06:23:32.449Z,0
2016-12-04T06:24:33.063Z,0
2016-12-04T06:25:33.682Z,0
2016-12-04T06:26:34.284Z,0
2016-12-04T06:27:34.901Z,0
2016-12-04T06:28:35.520Z,0
2016-12-04T06:29:36.126Z,0
2016-12-04T06:30:36.766Z,0
2016-12-04T06:31:37.396Z,0
2016-12-04T06:32:38.008Z,0
2016-12-04T06:33:38.622Z,0
2016-12-04T06:34:39.238Z,0
2016-12-04T06:35:39.843Z,0
2016-12-04T06:36:40.472Z,0
2016-12-04T06:37:41.107Z,0
2016-12-04T06:38:41.729Z,0
2016-12-04T06:39:42.345Z,0
2016-12-04T06:40:42.955Z,0
2016-12-04T06:41:43.591Z,0
2016-12-04T06:42:44.232Z,0
2016-12-04T06:43:44.862Z,4
2016-12-04T06:44:45.493Z,4
2016-12-04T06:45:46.124Z,0
2016-12-04T06:46:46.752Z,4
2016-12-04T06:47:47.370Z,4
2016-12-04T06:48:47.983Z,4
2016-12-04T06:49:48.597Z,4
2016-12-04T06:50:49.218Z,4
2016-12-04T06:51:49.853Z,8
2016-12-04T06:52:50.474Z,4
2016-12-04T06:53:51.097Z,8
2016-12-04T06:54:51.707Z,8
2016-12-04T06:55:52.321Z,12
2016-12-04T06:56:52.945Z,12
2016-12-04T06:57:53.560Z,16
2016-12-04T06:58:54.182Z,16
2016-12-04T06:59:54.806Z,20
2016-12-04T07:00:55.429Z,24
2016-12-04T07:01:56.050Z,24
2016-12-04T07:02:56.727Z,32
2016-12-04T07:03:57.334Z,32
2016-12-04T07:04:57.946Z,40
2016-12-04T07:05:58.576Z,44
2016-12-04T07:06:59.215Z,48
2016-12-04T07:07:59.822Z,52
2016-12-04T07:09:00.439Z,60
2016-12-04T07:10:01.060Z,64
2016-12-04T07:11:01.683Z,68
2016-12-04T07:12:02.325Z,72
2016-12-04T07:13:02.959Z,84
2016-12-04T07:14:03.579Z,92
2016-12-04T07:15:04.209Z,104
2016-12-04T07:16:04.829Z,112
2016-12-04T07:17:05.463Z,120
2016-12-04T07:18:06.095Z,128
2016-12-04T07:19:06.722Z,140
2016-12-04T07:20:07.327Z,148
2016-12-04T07:21:07.966Z,156
2016-12-04T07:22:08.584Z,168
2016-12-04T07:23:09.203Z,176
2016-12-04T07:24:09.827Z,184
2016-12-04T07:25:10.434Z,196
2016-12-04T07:26:11.068Z,208
2016-12-04T07:27:11.682Z,216
2016-12-04T07:28:12.305Z,228
2016-12-04T07:29:12.921Z,240
2016-12-04T07:30:13.542Z,256
2016-12-04T07:31:14.158Z,276
2016-12-04T07:32:14.775Z,296
2016-12-04T07:33:15.403Z,312
2016-12-04T07:34:16.037Z,324
2016-12-04T07:35:16.669Z,336
2016-12-04T07:36:17.278Z,348
2016-12-04T07:37:17.910Z,368
2016-12-04T07:38:18.522Z,384
2016-12-04T07:39:19.153Z,404
2016-12-04T07:40:19.764Z,424
2016-12-04T07:41:20.381Z,440
2016-12-04T07:42:21.016Z,452
2016-12-04T07:43:21.619Z,464
2016-12-04T07:44:22.243Z,480
2016-12-04T07:45:22.876Z,500
2016-12-04T07:46:23.497Z,528
2016-12-04T07:47:24.127Z,564
2016-12-04T07:48:24.749Z,600
2016-12-04T07:49:25.378Z,632
2016-12-04T07:50:25.991Z,664
2016-12-04T07:51:26.613Z,688
2016-12-04T07:52:27.253Z,708
2016-12-04T07:53:27.868Z,728
2016-12-04T07:54:28.488Z,756
2016-12-04T07:55:29.109Z,792
2016-12-04T07:56:29.739Z,828
2016-12-04T07:57:30.368Z,872
2016-12-04T07:58:30.982Z,912
2016-12-04T07:59:31.593Z,940
2016-12-04T08:00:32.203Z,968
2016-12-04T08:01:32.805Z,996
2016-12-04T08:02:33.429Z,1032
2016-12-04T08:03:34.059Z,1088
2016-12-04T08:04:34.676Z,1136
2016-12-04T08:05:35.297Z,1172
2016-12-04T08:06:35.924Z,1184
2016-12-04T08:07:36.543Z,1180
2016-12-04T08:08:37.156Z,1172
2016-12-04T08:09:37.773Z,1164
2016-12-04T08:10:38.403Z,1176
2016-12-04T08:11:39.039Z,1192
2016-12-04T08:12:39.673Z,1208
2016-12-04T08:13:40.302Z,1244
2016-12-04T08:14:40.923Z,1288
2016-12-04T08:15:41.555Z,1324
2016-12-04T08:16:42.187Z,1352
2016-12-04T08:17:42.872Z,1380
2016-12-04T08:18:43.507Z,1400
2016-12-04T08:19:44.127Z,1428
2016-12-04T08:20:44.764Z,1472
2016-12-04T08:21:45.381Z,1528
2016-12-04T08:22:46.029Z,1572
2016-12-04T08:23:46.641Z,1604
2016-12-04T08:24:47.255Z,1632
2016-12-04T08:25:47.884Z,1660
2016-12-04T08:26:48.524Z,1700
2016-12-04T08:27:49.166Z,1736
2016-12-04T08:28:49.788Z,1764
2016-12-04T08:29:50.410Z,1808
2016-12-04T08:30:51.044Z,1880
2016-12-04T08:31:51.659Z,1976
2016-12-04T08:32:52.284Z,2076
2016-12-04T08:33:52.917Z,2172
2016-12-04T08:34:53.508Z,2296
2016-12-04T08:35:54.142Z,2464
2016-12-04T08:36:54.756Z,2572
2016-12-04T08:37:55.385Z,2588
2016-12-04T08:38:56.019Z,2636
2016-12-04T08:39:56.634Z,2716
2016-12-04T08:40:57.256Z,2776
2016-12-04T08:41:57.864Z,2828
2016-12-04T08:42:58.486Z,2848
2016-12-04T08:43:59.127Z,2832
2016-12-04T08:44:59.741Z,2800
2016-12-04T08:46:00.375Z,2752
2016-12-04T08:47:00.990Z,2700
2016-12-04T08:48:01.640Z,2716
2016-12-04T08:49:02.282Z,2776
2016-12-04T08:50:02.896Z,2812
2016-12-04T08:51:03.546Z,2856
2016-12-04T08:52:04.170Z,2916
2016-12-04T08:53:04.798Z,3000
2016-12-04T08:54:05.424Z,3076
2016-12-04T08:55:06.049Z,3124
2016-12-04T08:56:06.660Z,3156
2016-12-04T08:57:07.275Z,3232
2016-12-04T08:58:07.917Z,3308
2016-12-04T08:59:08.550Z,3312
2016-12-04T09:00:09.160Z,3264
2016-12-04T09:01:09.788Z,3120
2016-12-04T09:02:10.409Z,3092
2016-12-04T09:03:11.026Z,3188
2016-12-04T09:04:11.646Z,3288
2016-12-04T09:05:12.282Z,3360
2016-12-04T09:06:12.892Z,3404
2016-12-04T09:07:13.499Z,3428
2016-12-04T09:08:14.112Z,3432
2016-12-04T09:09:14.758Z,3416
2016-12-04T09:10:15.381Z,3444
2016-12-04T09:11:16.024Z,3456
2016-12-04T09:12:16.653Z,3528
2016-12-04T09:13:17.283Z,3624
2016-12-04T09:14:17.937Z,3716
2016-12-04T09:15:18.608Z,3764
2016-12-04T09:16:19.213Z,3740
2016-12-04T09:17:19.833Z,3708
2016-12-04T09:18:20.470Z,3608
2016-12-04T09:19:21.082Z,3604
2016-12-04T09:20:21.700Z,3596
2016-12-04T09:21:22.385Z,3600
2016-12-04T09:22:23.012Z,3568
2016-12-04T09:23:23.631Z,3460
2016-12-04T09:24:24.250Z,3348
2016-12-04T09:25:24.883Z,3244
2016-12-04T09:26:25.491Z,3180
2016-12-04T09:27:26.110Z,3264
2016-12-04T09:28:26.749Z,3376
2016-12-04T09:29:27.366Z,3496
2016-12-04T09:30:27.988Z,3508
2016-12-04T09:31:28.605Z,3456
2016-12-04T09:32:29.236Z,3332
2016-12-04T09:33:29.854Z,3132
2016-12-04T09:34:30.471Z,3040
2016-12-04T09:35:31.100Z,2944
2016-12-04T09:36:31.729Z,2844
2016-12-04T09:37:32.376Z,2788
2016-12-04T09:38:33.012Z,2788
2016-12-04T09:39:33.631Z,2732
2016-12-04T09:40:34.251Z,2728
2016-12-04T09:41:34.938Z,2792
2016-12-04T09:42:35.561Z,2836
2016-12-04T09:43:36.197Z,2824
2016-12-04T09:44:36.822Z,2876
2016-12-04T09:45:37.442Z,3032
2016-12-04T09:46:38.065Z,3172
2016-12-04T09:47:38.717Z,3284
2016-12-04T09:48:39.345Z,3356
2016-12-04T09:49:39.970Z,3376
2016-12-04T09:50:40.630Z,3428
2016-12-04T09:51:41.272Z,3548
2016-12-04T09:52:41.899Z,3692
2016-12-04T09:53:42.542Z,3804
2016-12-04T09:54:43.177Z,3856
2016-12-04T09:55:43.793Z,3916
2016-12-04T09:56:44.411Z,3972
2016-12-04T09:57:45.041Z,3948
2016-12-04T09:58:45.659Z,3928
2016-12-04T09:59:46.278Z,3936
2016-12-04T10:00:46.901Z,3992
2016-12-04T10:01:47.521Z,4068
2016-12-04T10:02:48.151Z,4148
2016-12-04T10:03:48.785Z,4180
2016-12-04T10:04:49.412Z,4204
2016-12-04T10:05:50.031Z,4196
2016-12-04T10:06:50.658Z,4176
2016-12-04T10:07:51.283Z,4168
2016-12-04T10:08:51.920Z,4120
2016-12-04T10:09:52.597Z,4056
2016-12-04T10:10:53.236Z,4008
2016-12-04T10:11:53.868Z,3984
2016-12-04T10:12:54.505Z,3984
2016-12-04T10:13:55.167Z,3980
2016-12-04T10:14:55.821Z,3928
2016-12-04T10:15:56.527Z,3884
2016-12-04T10:16:57.249Z,3928
2016-12-04T10:17:57.925Z,3996
2016-12-04T10:18:58.548Z,4096
2016-12-04T10:19:59.191Z,4220
2016-12-04T10:20:59.821Z,4284
2016-12-04T10:22:00.461Z,4324
2016-12-04T10:23:01.104Z,4320
2016-12-04T10:24:01.746Z,4284
2016-12-04T10:25:02.401Z,4220
2016-12-04T10:26:03.038Z,4120
2016-12-04T10:27:03.663Z,4052
2016-12-04T10:28:04.299Z,4040
2016-12-04T10:29:04.936Z,4004
2016-12-04T10:30:05.578Z,3936
2016-12-04T10:31:06.209Z,3856
2016-12-04T10:32:06.834Z,3756
2016-12-04T10:33:07.461Z,3676
2016-12-04T10:34:08.100Z,3640
2016-12-04T10:35:08.729Z,3576
2016-12-04T10:36:09.354Z,3520
2016-12-04T10:37:09.983Z,3504
2016-12-04T10:38:10.609Z,3540
2016-12-04T10:39:11.244Z,3528
2016-12-04T10:40:11.958Z,3460
2016-12-04T10:41:12.667Z,3336
2016-12-04T10:42:13.335Z,3160
2016-12-04T10:43:13.961Z,3036
2016-12-04T10:44:14.615Z,2992
2016-12-04T10:45:15.233Z,2960
2016-12-04T10:46:15.871Z,2936
2016-12-04T10:47:16.542Z,2952
2016-12-04T10:48:17.219Z,2972
2016-12-04T10:49:17.859Z,2920
2016-12-04T10:50:18.997Z,2860
2016-12-04T10:51:19.615Z,2828
2016-12-04T10:52:20.274Z,2808
2016-12-04T10:53:20.899Z,2788
2016-12-04T10:54:21.542Z,2896
2016-12-04T10:55:22.181Z,2932
2016-12-04T10:56:22.822Z,2920
2016-12-04T10:57:23.436Z,2940
2016-12-04T10:58:24.086Z,2996
2016-12-04T10:59:24.723Z,3064
2016-12-04T11:00:25.370Z,3128
2016-12-04T11:01:26.013Z,3196
2016-12-04T11:02:26.652Z,3252
2016-12-04T11:03:27.273Z,3304
2016-12-04T11:04:27.899Z,3340
2016-12-04T11:05:29.494Z,3368
2016-12-04T11:06:30.115Z,3352
2016-12-04T11:07:30.740Z,3320
2016-12-04T11:08:31.383Z,3292
2016-12-04T11:09:32.032Z,3244
2016-12-04T11:10:32.673Z,3188
2016-12-04T11:11:33.322Z,3156
2016-12-04T11:12:34.031Z,3140
2016-12-04T11:13:34.682Z,3136
2016-12-04T11:14:35.313Z,3136
2016-12-04T11:15:35.998Z,3080
2016-12-04T11:16:36.666Z,3036
2016-12-04T11:17:37.286Z,3108
2016-12-04T11:18:37.913Z,3220
2016-12-04T11:19:38.552Z,3288
2016-12-04T11:20:39.205Z,3380
2016-12-04T11:21:39.852Z,3472
2016-12-04T11:22:40.481Z,3540
2016-12-04T11:23:41.128Z,3592
2016-12-04T11:24:41.778Z,3592
2016-12-04T11:25:42.408Z,3588
2016-12-04T11:26:43.044Z,3580
2016-12-04T11:27:43.674Z,3544
2016-12-04T11:28:44.302Z,3492
2016-12-04T11:29:44.928Z,3460
2016-12-04T11:30:45.601Z,3452
2016-12-04T11:31:46.234Z,3440
2016-12-04T11:32:46.947Z,3420
2016-12-04T11:33:47.580Z,3392
2016-12-04T11:34:48.209Z,3372
2016-12-04T11:35:48.836Z,3400
2016-12-04T11:36:49.473Z,3460
2016-12-04T11:37:50.128Z,3524
2016-12-04T11:38:50.741Z,3548
2016-12-04T11:39:51.384Z,3528
2016-12-04T11:40:52.027Z,3500
2016-12-04T11:41:52.650Z,3468
2016-12-04T11:42:53.276Z,3452
2016-12-04T11:43:53.917Z,3452
2016-12-04T11:44:54.533Z,3460
2016-12-04T11:45:55.164Z,3472
2016-12-04T11:46:55.799Z,3528
2016-12-04T11:47:56.432Z,3608
2016-12-04T11:48:57.169Z,3660
2016-12-04T11:49:57.798Z,3660
2016-12-04T11:50:58.418Z,3608
2016-12-04T11:51:59.052Z,3524
2016-12-04T11:52:59.686Z,3480
2016-12-04T11:54:00.340Z,3484
2016-12-04T11:55:00.972Z,3500
2016-12-04T11:56:01.626Z,3504
2016-12-04T11:57:02.275Z,3480
2016-12-04T11:58:02.893Z,3416
2016-12-04T11:59:03.563Z,3340
2016-12-04T12:00:04.215Z,3316
2016-12-04T12:01:04.856Z,3352
2016-12-04T12:02:05.476Z,3416
2016-12-04T12:03:06.110Z,3484
2016-12-04T12:04:06.750Z,3540
2016-12-04T12:05:07.372Z,3568
2016-12-04T12:06:07.991Z,3564
2016-12-04T12:07:08.637Z,3528
2016-12-04T12:08:09.285Z,3492
2016-12-04T12:09:09.911Z,3456
2016-12-04T12:10:10.558Z,3416
2016-12-04T12:11:11.220Z,3356
2016-12-04T12:12:11.848Z,3272
2016-12-04T12:13:12.494Z,3196
2016-12-04T12:14:13.142Z,3148
2016-12-04T12:15:13.786Z,3160
2016-12-04T12:16:14.402Z,3224
2016-12-04T12:17:15.031Z,3284
2016-12-04T12:18:15.668Z,3292
2016-12-04T12:19:16.307Z,3228
2016-12-04T12:20:16.983Z,3136
2016-12-04T12:21:17.622Z,3064
2016-12-04T12:22:18.253Z,3020
2016-12-04T12:23:18.894Z,2984
2016-12-04T12:24:19.530Z,2956
2016-12-04T12:25:20.175Z,2932
2016-12-04T12:26:20.838Z,2892
2016-12-04T12:27:21.471Z,2864
2016-12-04T12:28:22.102Z,2848
2016-12-04T12:29:22.746Z,2852
2016-12-04T12:30:23.389Z,2872
2016-12-04T12:31:24.024Z,2892
2016-12-04T12:32:24.642Z,2900
2016-12-04T12:33:25.320Z,2892
2016-12-04T12:34:25.967Z,2876
2016-12-04T12:35:26.599Z,2864
2016-12-04T12:36:27.233Z,2888
2016-12-04T12:37:27.895Z,2928
2016-12-04T12:38:28.527Z,2984
2016-12-04T12:39:29.188Z,3040
2016-12-04T12:40:29.843Z,3056
2016-12-04T12:41:30.500Z,3032
2016-12-04T12:42:31.177Z,2996
2016-12-04T12:43:31.840Z,2968
2016-12-04T12:44:32.488Z,2952
2016-12-04T12:45:33.182Z,2952
2016-12-04T12:46:33.818Z,2960
2016-12-04T12:47:34.442Z,2988
2016-12-04T12:48:35.080Z,3032
2016-12-04T12:49:35.732Z,3064
2016-12-04T12:50:36.368Z,2984
2016-12-04T12:51:37.071Z,3008
2016-12-04T12:52:37.722Z,3000
2016-12-04T12:53:38.418Z,3008
2016-12-04T12:54:39.061Z,3004
2016-12-04T12:55:39.699Z,2976
2016-12-04T12:56:40.376Z,2932
2016-12-04T12:57:40.982Z,2876
2016-12-04T12:58:41.641Z,2828
2016-12-04T12:59:42.290Z,2796
2016-12-04T13:00:42.926Z,2780
2016-12-04T13:01:43.601Z,2780
2016-12-04T13:02:44.250Z,2764
2016-12-04T13:03:44.915Z,2736
2016-12-04T13:04:45.565Z,2760
2016-12-04T13:05:46.195Z,2804
2016-12-04T13:06:46.860Z,2836
2016-12-04T13:07:47.542Z,2820
2016-12-04T13:08:48.229Z,2744
2016-12-04T13:09:48.890Z,2664
2016-12-04T13:10:49.627Z,2644
2016-12-04T13:11:50.222Z,2640
2016-12-04T13:12:50.889Z,2616
2016-12-04T13:13:51.538Z,2580
2016-12-04T13:14:52.279Z,2516
2016-12-04T13:15:52.891Z,2424
2016-12-04T13:16:53.543Z,2352
2016-12-04T13:17:54.177Z,2320
2016-12-04T13:18:54.837Z,2324
2016-12-04T13:19:55.487Z,2352
2016-12-04T13:20:56.130Z,2356
2016-12-04T13:21:56.789Z,2328
2016-12-04T13:22:57.437Z,2284
2016-12-04T13:23:58.084Z,2256
2016-12-04T13:24:58.710Z,2252
2016-12-04T13:25:59.371Z,2276
2016-12-04T13:27:00.060Z,2296
2016-12-04T13:28:00.691Z,2296
2016-12-04T13:29:01.339Z,2260
2016-12-04T13:30:01.994Z,2196
2016-12-04T13:31:02.622Z,2144
2016-12-04T13:32:03.297Z,2092
2016-12-04T13:33:04.068Z,2040
2016-12-04T13:34:04.734Z,2004
2016-12-04T13:35:05.456Z,1992
2016-12-04T13:36:06.095Z,1984
2016-12-04T13:37:06.723Z,1956
2016-12-04T13:38:07.404Z,1912
2016-12-04T13:39:08.083Z,1868
2016-12-04T13:40:08.706Z,1840
2016-12-04T13:41:09.365Z,1824
2016-12-04T13:42:10.049Z,1816
2016-12-04T13:43:10.720Z,1788
2016-12-04T13:44:11.366Z,1744
2016-12-04T13:45:12.003Z,1692
2016-12-04T13:46:12.637Z,1676
2016-12-04T13:47:13.261Z,1668
2016-12-04T13:48:13.906Z,1648
2016-12-04T13:49:14.556Z,1632
2016-12-04T13:50:15.215Z,1604
2016-12-04T13:51:15.842Z,1548
2016-12-04T13:52:16.503Z,1516
2016-12-04T13:53:17.151Z,1488
2016-12-04T13:54:17.773Z,1484
2016-12-04T13:55:18.407Z,1500
2016-12-04T13:56:19.035Z,1500
2016-12-04T13:57:19.685Z,1456
2016-12-04T13:58:20.330Z,1396
2016-12-04T13:59:20.975Z,1352
2016-12-04T14:00:21.689Z,1336
2016-12-04T14:01:22.345Z,1324
2016-12-04T14:02:22.996Z,1304
2016-12-04T14:03:23.660Z,1276
2016-12-04T14:04:24.319Z,1244
2016-12-04T14:05:24.947Z,1216
2016-12-04T14:06:25.595Z,1184
2016-12-04T14:07:26.253Z,1144
2016-12-04T14:08:26.904Z,1120
2016-12-04T14:09:27.539Z,1104
2016-12-04T14:10:28.193Z,1100
2016-12-04T14:11:28.818Z,1096